Latest Weather Observations for Flinders Island Airport

IDT60801

Issued at 2:05 pm EST Friday 25 April 2014 (issued every 30 minutes, with the page automatically refreshed every 10 minutes)

About weather observations | Map of weather stations | Latest weather observations for TAS | Other Formats
Station Details ID: 099005 Name: FLINDERS ISLAND AIRPORT Lat: -40.09 Lon: 148.00 Height: 9.0 m
Data from the previous 72 hours. | See also: Recent months at Flinders Island Airport
Date/Time
EST
Temp
°C
App
Temp
°C
Dew
Point
Rel
Hum
%
Delta-T
°C
Wind Press
QNH
hPa
Press
MSL
hPa
Rain
since 9 am
mm
Dir
 
Spd
km/h
Gust
km/h
Spd
kts
Gust
kts
25/02:00pm 16.2 11.9 7.2 55 4.5 N 19 33 10 18 1017.1 - 0.0
25/01:30pm 15.7 11.3 6.4 54 4.5 N 19 28 10 15 1017.7 - 0.0
25/01:00pm 16.1 11.1 6.5 53 4.7 NNE 22 32 12 17 1018.3 - 0.0
25/12:30pm 15.8 11.1 6.0 52 4.7 NNE 20 28 11 15 1018.9 - 0.0
25/12:00pm 15.6 10.1 6.1 53 4.6 NNE 24 35 13 19 1019.4 1019.4 0.0
25/11:30am 15.1 10.0 5.9 54 4.4 N 22 30 12 16 1019.8 - 0.0
25/11:00am 15.0 10.8 5.8 54 4.4 N 17 28 9 15 1020.2 - 0.0
25/10:30am 14.6 10.3 5.1 53 4.5 NNE 17 22 9 12 1020.7 - 0.0
25/10:00am 14.7 11.9 5.2 53 4.5 N 9 13 5 7 1021.0 - 0.0
25/09:30am 14.7 11.2 5.5 54 4.4 NNE 13 19 7 10 1021.3 - 0.0
25/09:00am 13.6 10.1 5.5 58 3.8 N 13 15 7 8 1021.7 1021.7 0.6
25/08:30am 12.8 10.9 8.9 77 1.9 ENE 9 11 5 6 1021.7 - 0.6
25/08:00am 9.3 7.2 6.6 83 1.3 NE 7 9 4 5 1021.8 - 0.6
25/07:30am 8.1 5.0 5.6 84 1.1 NE 11 13 6 7 1021.6 - 0.6
25/07:20am 7.8 5.4 5.1 83 1.2 N 7 15 4 8 1021.6 - 0.6
25/07:00am 7.1 4.5 4.4 83 1.2 ENE 7 9 4 5 1021.4 - 0.6
25/06:30am 6.8 3.7 3.6 80 1.4 NE 9 13 5 7 1021.2 - 0.6
25/06:00am 7.3 4.5 3.0 74 1.8 NW 7 17 4 9 1021.2 1021.2 0.6
25/05:30am 10.7 6.4 3.5 61 3.2 W 15 20 8 11 1021.1 - 0.6
25/05:00am 11.5 7.1 4.9 64 3.0 WSW 17 20 9 11 1020.9 - 0.6
25/04:30am 11.4 6.6 4.8 64 3.0 WSW 19 26 10 14 1020.8 - 0.6
25/04:00am 11.4 6.7 5.1 65 2.9 WSW 19 26 10 14 1020.5 - 0.6
25/03:30am 11.8 6.0 4.3 60 3.4 SW 24 30 13 16 1020.3 - 0.6
25/03:00am 11.6 5.2 5.0 64 3.0 WSW 28 35 15 19 1020.3 1020.3 0.6
25/02:30am 11.9 6.2 4.9 62 3.2 WSW 24 32 13 17 1020.5 - 0.6
25/02:00am 11.5 5.4 4.9 64 3.0 SW 26 33 14 18 1020.6 - 0.6
25/01:30am 11.5 5.0 4.9 64 3.0 WSW 28 35 15 19 1020.4 - 0.6
25/01:00am 11.5 4.2 4.7 63 3.1 WSW 32 39 17 21 1020.2 - 0.6
25/12:30am 11.8 4.9 4.8 62 3.2 WSW 30 37 16 20 1020.0 - 0.6
25/12:00am 11.6 3.8 4.8 63 3.1 WSW 35 41 19 22 1019.9 1019.9 0.6
 
Date/Time
EST
Temp
°C
App
Temp
°C
Dew
Point
Rel
Hum
%
Delta-T
°C
Wind Press
QNH
hPa
Press
MSL
hPa
Rain
since 9 am
mm
Dir
 
Spd
km/h
Gust
km/h
Spd
kts
Gust
kts
24/11:30pm 11.6 4.5 5.3 65 2.9 WSW 32 41 17 22 1020.1 - 0.6
24/11:00pm 12.0 4.7 4.5 60 3.4 WSW 32 39 17 21 1020.4 - 0.6
24/10:30pm 12.1 4.8 4.6 60 3.4 WSW 32 41 17 22 1020.3 - 0.6
24/10:00pm 12.3 4.9 5.0 61 3.4 WSW 33 41 18 22 1020.0 - 0.6
24/09:30pm 12.3 5.0 4.5 59 3.5 WSW 32 39 17 21 1019.7 - 0.6
24/09:00pm 12.6 4.3 4.3 57 3.8 WSW 37 50 20 27 1019.1 1019.1 0.6
24/08:30pm 12.6 4.0 4.6 58 3.7 WSW 39 48 21 26 1018.5 - 0.6
24/08:00pm 12.9 3.5 4.6 57 3.8 WSW 43 54 23 29 1018.2 - 0.6
24/07:30pm 12.8 4.2 4.5 57 3.8 WSW 39 56 21 30 1018.0 - 0.6
24/07:00pm 12.8 4.9 4.5 57 3.8 WSW 35 46 19 25 1017.4 - 0.6
24/06:30pm 13.2 6.0 6.1 62 3.4 SW 33 46 18 25 1016.7 - 0.6
24/06:00pm 12.7 5.1 5.6 62 3.3 WSW 35 50 19 27 1015.9 1015.9 0.6
24/05:30pm 12.9 4.0 5.1 59 3.6 WSW 41 52 22 28 1015.4 - 0.6
24/05:00pm 13.1 4.4 6.2 63 3.3 WSW 41 54 22 29 1014.8 - 0.6
24/04:30pm 12.9 2.3 5.1 59 3.6 WSW 50 57 27 31 1014.2 - 0.6
24/04:00pm 13.3 3.5 5.2 58 3.8 WSW 46 61 25 33 1013.6 - 0.6
24/03:30pm 14.2 4.2 6.1 58 3.9 WSW 48 61 26 33 1013.2 - 0.6
24/03:00pm 13.9 2.6 5.3 56 4.0 WSW 54 65 29 35 1012.6 1012.6 0.6
24/02:30pm 14.0 3.1 5.6 57 4.0 WSW 52 63 28 34 1012.2 - 0.6
24/02:00pm 13.7 1.9 5.8 59 3.7 WSW 57 70 31 38 1011.6 - 0.6
24/01:30pm 14.4 2.6 5.5 55 4.2 WSW 57 72 31 39 1011.3 - 0.6
24/01:00pm 14.7 2.7 6.5 58 4.0 WSW 59 70 32 38 1010.8 - 0.6
24/12:51pm 14.6 3.1 6.2 57 4.0 WSW 56 74 30 40 1010.5 - 0.6
24/12:30pm 14.0 2.2 5.9 58 3.8 WSW 57 70 31 38 1010.4 - 0.6
24/12:04pm 14.9 4.3 8.6 66 3.2 WSW 54 72 29 39 1010.1 - 0.6
24/12:00pm 14.1 3.2 7.2 63 3.4 WSW 54 67 29 36 1010.1 1010.1 0.6
24/11:30am 13.7 2.7 6.8 63 3.3 WSW 54 67 29 36 1009.9 - 0.4
24/11:00am 14.2 2.4 7.5 64 3.3 WSW 59 74 32 40 1009.5 - 0.4
24/10:45am 14.1 3.5 8.3 68 2.9 WSW 54 72 29 39 1009.1 - 0.4
24/10:30am 14.4 3.2 7.5 63 3.4 WSW 56 69 30 37 1008.9 - 0.4
24/10:03am 14.4 4.4 9.2 71 2.7 W 52 65 28 35 1008.3 - 0.4
24/10:00am 13.8 4.6 9.5 75 2.2 W 48 65 26 35 1008.3 - 0.4
24/09:45am 13.3 4.6 9.9 80 1.7 W 46 74 25 40 1008.3 - 0.2
24/09:42am 14.1 6.0 10.1 77 2.1 W 43 74 23 40 1008.2 - 0.2
24/09:40am 15.0 8.2 10.6 75 2.3 W 37 56 20 30 1008.0 - 0.2
24/09:30am 13.9 7.9 10.1 78 2.0 W 32 44 17 24 1007.7 - 0.2
24/09:00am 13.0 6.3 9.6 80 1.7 W 35 43 19 23 1008.1 1008.1 2.0
24/08:30am 13.3 4.8 9.2 76 2.1 W 44 56 24 30 1008.1 - 1.8
24/08:00am 13.0 4.2 9.4 79 1.8 W 46 54 25 29 1007.6 - 1.8
24/07:54am 13.0 3.8 9.4 79 1.8 W 48 67 26 36 1007.5 - 1.8
24/07:44am 12.9 3.8 9.7 81 1.6 WSW 48 59 26 32 1007.5 - 1.8
24/07:43am 12.9 3.4 9.7 81 1.6 WSW 50 61 27 33 1007.4 - 1.8
24/07:30am 12.8 2.7 10.5 86 1.2 WSW 54 69 29 37 1007.0 - 1.6
24/07:22am 12.9 2.5 10.6 86 1.2 WSW 56 72 30 39 1006.9 - 1.4
24/07:14am 13.0 2.5 10.4 84 1.3 WSW 56 74 30 40 1006.8 - 1.0
24/07:05am 13.9 2.7 9.9 77 2.1 WSW 59 72 32 39 1006.3 - 0.2
24/07:02am 14.6 3.9 9.6 72 2.6 WSW 56 70 30 38 1006.3 - 0.0
24/07:00am 16.6 8.1 10.7 68 3.1 WNW 46 67 25 36 1006.0 - 0.0
24/06:40am 16.4 8.5 9.3 63 3.7 NW 41 59 22 32 1005.6 - 0.0
24/06:30am 16.4 7.9 9.3 63 3.7 NW 44 56 24 30 1005.7 - 0.0
24/06:00am 16.4 9.1 8.9 61 3.9 NW 37 56 20 30 1005.9 1005.9 0.0
24/05:43am 16.2 9.7 8.9 62 3.7 NW 33 52 18 28 1005.9 - 0.0
24/05:30am 15.9 9.6 9.1 64 3.5 NW 32 44 17 24 1005.9 - 0.0
24/05:00am 15.2 10.8 9.1 67 3.1 NNW 22 32 12 17 1006.0 - 0.0
24/04:30am 14.9 10.4 10.1 73 2.5 NNW 24 37 13 20 1006.2 - 0.0
24/04:00am 14.7 11.0 10.3 75 2.3 NNW 20 30 11 16 1006.4 - 0.0
24/03:30am 14.5 11.5 10.5 77 2.1 NNW 17 28 9 15 1006.9 - 0.0
24/03:00am 14.3 11.2 10.3 77 2.1 NNW 17 32 9 17 1007.5 1007.5 0.0
24/02:30am 14.2 11.6 10.6 79 1.9 NNW 15 24 8 13 1008.0 - 0.0
24/02:00am 14.2 11.5 10.4 78 2.0 NNW 15 20 8 11 1008.6 - 0.0
24/01:30am 14.2 11.5 10.2 77 2.1 NNW 15 22 8 12 1009.2 - 0.0
24/01:00am 14.3 11.6 10.3 77 2.1 NNW 15 20 8 11 1009.6 - 0.0
24/12:30am 14.3 11.9 10.1 76 2.2 NNW 13 19 7 10 1009.9 - 0.0
24/12:00am 13.7 11.2 9.6 76 2.1 NNW 13 17 7 9 1010.2 1010.2 0.0
 
Date/Time
EST
Temp
°C
App
Temp
°C
Dew
Point
Rel
Hum
%
Delta-T
°C
Wind Press
QNH
hPa
Press
MSL
hPa
Rain
since 9 am
mm
Dir
 
Spd
km/h
Gust
km/h
Spd
kts
Gust
kts
23/11:30pm 14.1 10.9 9.9 76 2.2 NW 17 22 9 12 1010.6 - 0.0
23/11:00pm 13.8 11.0 10.0 78 2.0 NW 15 22 8 12 1011.1 - 0.0
23/10:30pm 13.6 11.4 9.5 76 2.1 N 11 15 6 8 1011.5 - 0.0
23/10:00pm 13.6 11.4 9.3 75 2.2 N 11 15 6 8 1011.7 - 0.0
23/09:30pm 13.8 11.2 9.3 74 2.3 N 13 17 7 9 1011.9 - 0.0
23/09:00pm 13.8 11.2 9.5 75 2.2 N 13 15 7 8 1012.2 1012.2 0.0
23/08:30pm 14.2 12.2 10.0 76 2.2 NNW 11 13 6 7 1012.2 - 0.0
23/08:00pm 14.2 11.7 9.8 75 2.3 N 13 17 7 9 1012.5 - 0.0
23/07:30pm 13.9 11.3 9.5 75 2.3 N 13 15 7 8 1012.7 - 0.0
23/07:00pm 13.9 11.7 9.5 75 2.3 N 11 15 6 8 1012.7 - 0.0
23/06:30pm 13.7 11.5 9.2 74 2.3 N 11 13 6 7 1012.7 - 0.0
23/06:00pm 14.0 11.8 9.2 73 2.4 N 11 13 6 7 1012.6 1012.6 0.0
23/05:30pm 14.9 13.1 9.5 70 2.8 NNW 9 13 5 7 1012.5 - 0.0
23/05:00pm 15.5 12.3 9.8 69 3.0 WNW 17 24 9 13 1012.6 - 0.0
23/04:30pm 15.8 12.3 10.3 70 2.9 NW 19 26 10 14 1012.6 - 0.0
23/04:00pm 16.2 12.8 10.5 69 3.0 WNW 19 28 10 15 1012.7 - 0.0
23/03:30pm 16.2 12.8 10.7 70 2.9 NW 19 24 10 13 1012.8 - 0.0
23/03:00pm 17.5 14.1 11.1 66 3.5 NW 20 28 11 15 1013.0 1013.0 0.0
23/02:30pm 16.3 13.1 9.9 66 3.4 WNW 17 22 9 12 1013.2 - 0.0
23/02:00pm 16.7 12.5 9.6 63 3.7 NW 22 30 12 16 1013.2 - 0.0
23/01:30pm 16.4 12.8 10.5 68 3.1 WNW 20 28 11 15 1013.4 - 0.0
23/01:00pm 17.2 14.3 11.0 67 3.3 WNW 17 24 9 13 1013.8 - 0.0
23/12:30pm 16.8 13.3 10.2 65 3.5 WNW 19 26 10 14 1014.2 - 0.0
23/12:00pm 17.0 13.9 10.4 65 3.5 WNW 17 22 9 12 1014.7 1014.7 0.0
23/11:30am 16.3 13.6 10.4 68 3.1 W 15 19 8 10 1015.1 - 0.0
23/11:00am 16.8 13.6 10.0 64 3.6 W 17 20 9 11 1015.4 - 0.0
23/10:30am 16.0 14.1 10.5 70 2.9 WNW 11 15 6 8 1015.8 - 0.0
23/10:00am 16.0 14.2 10.7 71 2.8 NNW 11 15 6 8 1016.0 - 0.0
23/09:30am 14.8 12.8 11.6 81 1.7 N 13 17 7 9 1016.2 - 0.0
23/09:00am 13.8 13.1 12.0 89 1.0 ENE 7 7 4 4 1016.2 1016.2 0.0
23/08:30am 12.2 10.4 10.8 91 0.7 ENE 11 11 6 6 1016.3 - 0.0
23/08:00am 11.4 9.7 10.0 91 0.7 NE 9 11 5 6 1016.2 - 0.0
23/07:30am 9.7 7.3 8.5 92 0.6 ENE 11 13 6 7 1016.1 - 0.0
23/07:00am 8.5 5.4 7.1 91 0.7 ENE 13 13 7 7 1015.9 - 0.0
23/06:30am 8.8 6.1 7.4 91 0.7 NE 11 13 6 7 1015.8 - 0.0
23/06:00am 7.9 4.6 6.4 90 0.7 ENE 13 15 7 8 1015.7 1015.7 0.0
23/05:30am 8.3 5.4 6.4 88 0.9 NE 11 15 6 8 1015.6 - 0.0
23/05:00am 8.9 6.4 6.7 86 1.0 NE 9 15 5 8 1015.6 - 0.0
23/04:30am 8.1 5.3 5.0 81 1.4 NE 9 13 5 7 1015.6 - 0.0
23/04:00am 10.9 6.8 6.3 73 2.2 W 17 22 9 12 1015.4 - 0.0
23/03:30am 13.5 9.6 8.8 73 2.4 W 19 22 10 12 1015.4 - 0.0
23/03:00am 14.2 9.8 9.0 71 2.6 WSW 22 28 12 15 1015.4 1015.4 0.0
23/02:30am 13.9 9.5 9.1 73 2.4 W 22 28 12 15 1015.7 - 0.0
23/02:00am 14.0 9.7 9.4 74 2.4 W 22 30 12 16 1015.9 - 0.0
23/01:30am 13.8 9.4 9.0 73 2.4 WSW 22 28 12 15 1015.9 - 0.0
23/01:00am 13.9 9.5 9.1 73 2.4 WSW 22 28 12 15 1016.0 - 0.0
23/12:30am 14.0 8.1 9.0 72 2.5 WSW 30 35 16 19 1016.1 - 0.0
23/12:00am 14.0 8.4 8.8 71 2.6 WSW 28 33 15 18 1016.0 1016.0 0.0
 
Date/Time
EST
Temp
°C
App
Temp
°C
Dew
Point
Rel
Hum
%
Delta-T
°C
Wind Press
QNH
hPa
Press
MSL
hPa
Rain
since 9 am
mm
Dir
 
Spd
km/h
Gust
km/h
Spd
kts
Gust
kts
22/11:30pm 14.3 8.2 8.3 67 3.0 WSW 30 37 16 20 1016.1 - 0.0
22/11:00pm 14.3 7.7 8.5 68 2.9 WSW 33 39 18 21 1016.1 - 0.0
22/10:30pm 14.7 8.4 8.9 68 2.9 WSW 32 37 17 20 1016.0 - 0.0
22/10:00pm 14.6 8.2 8.5 67 3.1 WSW 32 37 17 20 1015.9 - 0.0
22/09:30pm 14.8 8.4 8.7 67 3.1 WSW 32 39 17 21 1015.8 - 0.0
22/09:00pm 15.1 8.2 8.8 66 3.2 W 35 46 19 25 1015.3 1015.3 0.0
22/08:30pm 15.2 8.1 8.2 63 3.5 W 35 44 19 24 1014.9 - 0.0
22/08:00pm 15.2 8.3 8.9 66 3.2 W 35 43 19 23 1014.7 - 0.0
22/07:30pm 15.1 8.2 9.0 67 3.1 W 35 43 19 23 1014.5 - 0.0
22/07:00pm 15.2 8.7 9.1 67 3.1 W 33 41 18 22 1014.3 - 0.0
22/06:30pm 15.4 7.9 9.5 68 3.0 W 39 48 21 26 1013.8 - 0.0
22/06:00pm 15.4 8.3 9.7 69 3.0 W 37 46 20 25 1013.4 1013.4 0.0
22/05:30pm 15.4 9.4 10.0 70 2.8 W 32 39 17 21 1013.0 - 0.0
22/05:00pm 15.7 8.7 10.0 69 3.0 W 37 46 20 25 1012.8 - 0.0
22/04:30pm 16.2 9.9 11.2 72 2.7 W 35 44 19 24 1012.4 - 0.0
22/04:00pm 16.8 11.3 11.7 72 2.8 W 32 41 17 22 1012.2 - 0.0
22/03:30pm 17.5 12.6 12.4 72 2.8 W 30 39 16 21 1011.8 - 0.0
22/03:00pm 17.1 11.7 12.8 76 2.4 W 33 41 18 22 1011.6 1011.6 0.0
22/02:32pm 17.0 11.6 12.9 77 2.3 W 33 43 18 23 1011.6 - 0.0
22/02:30pm 16.9 11.5 12.8 77 2.3 W 33 43 18 23 1011.6 - 0.0

Other Formats:

Comma delimited format used in spreadsheet applications
http://www.bom.gov.au/fwo/IDT60801/IDT60801.94980.axf

JavaScript Object Notation format (JSON) in row-major order
http://www.bom.gov.au/fwo/IDT60801/IDT60801.94980.json